createdAt,value
2023-05-09T00:00:09.913Z,45.26
2023-05-09T00:01:09.944Z,44.35
2023-05-09T00:02:10.027Z,43.56
2023-05-09T00:03:09.979Z,43.62
2023-05-09T00:04:10.005Z,43.34
2023-05-09T00:05:09.987Z,45.40
2023-05-09T00:06:09.970Z,47.89
2023-05-09T00:07:10.067Z,46.10
2023-05-09T00:08:10.000Z,45.56
2023-05-09T00:09:09.973Z,44.76
2023-05-09T00:10:09.979Z,43.32
2023-05-09T00:11:09.980Z,43.48
2023-05-09T00:12:09.995Z,40.96
2023-05-09T00:13:10.006Z,40.94
2023-05-09T00:14:10.029Z,41.41
2023-05-09T00:15:10.076Z,43.23
2023-05-09T00:16:10.023Z,42.76
2023-05-09T00:17:09.996Z,42.10
2023-05-09T00:18:09.988Z,41.19
2023-05-09T00:19:10.007Z,40.32
2023-05-09T00:20:10.025Z,44.21
2023-05-09T00:21:10.015Z,47.15
2023-05-09T00:22:09.993Z,48.97
2023-05-09T00:23:10.063Z,54.93
2023-05-09T00:24:09.999Z,54.98
2023-05-09T00:25:10.057Z,55.47
2023-05-09T00:26:10.010Z,56.95
2023-05-09T00:27:09.997Z,56.25
2023-05-09T00:28:09.992Z,59.62
2023-05-09T00:29:09.974Z,64.92
2023-05-09T00:30:10.012Z,65.02
2023-05-09T00:31:10.003Z,66.00
2023-05-09T00:32:10.052Z,65.69
2023-05-09T00:33:10.027Z,66.59
2023-05-09T00:34:09.990Z,66.35
2023-05-09T00:35:10.175Z,69.06
2023-05-09T00:36:10.008Z,69.12
2023-05-09T00:37:10.012Z,69.28
2023-05-09T00:38:10.029Z,68.86
2023-05-09T00:39:10.107Z,71.75
2023-05-09T00:40:10.043Z,70.95
2023-05-09T00:41:10.058Z,72.68
2023-05-09T00:42:10.088Z,68.36
2023-05-09T00:43:10.087Z,67.32
2023-05-09T00:44:10.095Z,66.15
2023-05-09T00:45:10.121Z,65.44
2023-05-09T00:46:10.168Z,60.71
2023-05-09T00:47:10.134Z,60.99
2023-05-09T00:48:10.174Z,60.33
2023-05-09T00:49:10.170Z,58.02
2023-05-09T00:50:10.179Z,60.39
2023-05-09T00:51:10.183Z,57.90
2023-05-09T00:52:10.204Z,60.52
2023-05-09T00:53:10.223Z,59.57
2023-05-09T00:54:10.254Z,59.46
2023-05-09T00:55:10.330Z,57.46
2023-05-09T00:56:10.261Z,56.37
2023-05-09T00:57:10.283Z,55.87
2023-05-09T00:58:10.275Z,57.42
2023-05-09T00:59:10.305Z,57.06
2023-05-09T01:00:10.325Z,56.77
2023-05-09T01:01:10.404Z,54.48
2023-05-09T01:02:10.322Z,52.98
2023-05-09T01:03:10.429Z,49.62
2023-05-09T01:04:10.349Z,48.08
2023-05-09T01:05:10.371Z,47.00
2023-05-09T01:06:10.480Z,44.67
2023-05-09T01:07:10.391Z,45.70
2023-05-09T01:08:10.416Z,48.79
2023-05-09T01:09:10.431Z,49.72
2023-05-09T01:10:10.443Z,48.68
2023-05-09T01:11:10.551Z,50.21
2023-05-09T01:12:10.478Z,46.81
2023-05-09T01:13:10.607Z,45.09
2023-05-09T01:14:10.534Z,44.35
2023-05-09T01:15:10.550Z,42.21
2023-05-09T01:16:10.592Z,42.65
2023-05-09T01:17:10.592Z,45.51
2023-05-09T01:18:10.614Z,46.67
2023-05-09T01:19:10.635Z,46.79
2023-05-09T01:20:10.628Z,46.74
2023-05-09T01:21:10.652Z,47.28
2023-05-09T01:22:10.654Z,50.09
2023-05-09T01:23:10.668Z,53.02
2023-05-09T01:24:10.707Z,56.37
2023-05-09T01:25:10.693Z,60.45
2023-05-09T01:26:10.718Z,56.14
2023-05-09T01:27:10.802Z,55.64
2023-05-09T01:28:10.737Z,58.23
2023-05-09T01:29:10.764Z,65.31
2023-05-09T01:30:10.756Z,70.86
2023-05-09T01:31:10.801Z,74.35
2023-05-09T01:32:10.793Z,76.34
2023-05-09T01:33:10.843Z,73.00
2023-05-09T01:34:10.849Z,77.18
2023-05-09T01:35:10.866Z,88.86
2023-05-09T01:36:10.886Z,104.07
2023-05-09T01:37:10.920Z,117.51
2023-05-09T01:38:10.928Z,126.10
2023-05-09T01:39:10.940Z,120.96
2023-05-09T01:40:10.978Z,110.79
2023-05-09T01:41:11.006Z,101.74
2023-05-09T01:42:11.005Z,96.20
2023-05-09T01:43:11.110Z,97.22
2023-05-09T01:44:11.118Z,92.99
2023-05-09T01:45:11.089Z,96.05
2023-05-09T01:46:11.121Z,101.39
2023-05-09T01:47:11.147Z,107.26
2023-05-09T01:48:11.169Z,110.62
2023-05-09T01:49:11.181Z,113.60
2023-05-09T01:50:11.222Z,111.89
2023-05-09T01:51:11.232Z,100.48
2023-05-09T01:52:11.279Z,95.81
2023-05-09T01:53:11.272Z,92.69
2023-05-09T01:54:11.271Z,95.88
2023-05-09T01:55:11.308Z,89.66
2023-05-09T01:56:11.322Z,87.40
2023-05-09T01:57:11.366Z,83.77
2023-05-09T01:58:11.373Z,88.56
2023-05-09T01:59:11.472Z,79.76
2023-05-09T02:00:11.423Z,79.46
2023-05-09T02:01:11.496Z,76.03
2023-05-09T02:02:11.499Z,75.91
2023-05-09T02:03:11.505Z,79.50
2023-05-09T02:04:11.498Z,75.63
2023-05-09T02:05:11.683Z,75.28
2023-05-09T02:06:11.524Z,71.17
2023-05-09T02:07:11.580Z,69.76
2023-05-09T02:08:11.584Z,75.04
2023-05-09T02:09:11.586Z,74.07
2023-05-09T02:10:11.627Z,73.88
2023-05-09T02:11:11.636Z,69.91
2023-05-09T02:12:11.635Z,73.44
2023-05-09T02:13:11.690Z,79.69
2023-05-09T02:14:11.690Z,84.92
2023-05-09T02:15:11.973Z,83.29
2023-05-09T02:16:11.728Z,87.32
2023-05-09T02:17:11.698Z,91.63
2023-05-09T02:18:11.711Z,91.35
2023-05-09T02:19:11.730Z,93.31
2023-05-09T02:20:11.739Z,95.27
2023-05-09T02:21:11.909Z,92.79
2023-05-09T02:22:11.762Z,97.37
2023-05-09T02:23:11.781Z,100.30
2023-05-09T02:24:11.790Z,99.27
2023-05-09T02:25:12.010Z,94.94
2023-05-09T02:26:11.821Z,92.18
2023-05-09T02:27:11.841Z,91.93
2023-05-09T02:28:11.887Z,95.51
2023-05-09T02:29:11.883Z,95.13
2023-05-09T02:30:11.933Z,97.08
2023-05-09T02:31:11.976Z,97.21
2023-05-09T02:32:11.948Z,100.82
2023-05-09T02:33:11.978Z,105.35
2023-05-09T02:34:11.941Z,104.41
2023-05-09T02:35:12.020Z,105.96
2023-05-09T02:36:11.974Z,109.37
2023-05-09T02:37:11.997Z,114.05
2023-05-09T02:38:12.010Z,119.04
2023-05-09T02:39:12.010Z,121.44
2023-05-09T02:40:12.032Z,126.59
2023-05-09T02:41:12.040Z,131.58
2023-05-09T02:42:12.105Z,134.93
2023-05-09T02:43:12.093Z,132.75
2023-05-09T02:44:12.114Z,127.51
2023-05-09T02:45:12.230Z,120.68
2023-05-09T02:46:12.166Z,120.13
2023-05-09T02:47:12.219Z,118.30
2023-05-09T02:48:12.180Z,111.28
2023-05-09T02:49:22.807Z,108.63
2023-05-09T02:50:13.184Z,102.29
2023-05-09T02:51:12.156Z,95.12
2023-05-09T02:52:12.150Z,96.59
2023-05-09T02:53:12.167Z,93.84
2023-05-09T02:54:12.134Z,94.21
2023-05-09T02:55:12.320Z,95.32
2023-05-09T02:56:12.115Z,94.44
2023-05-09T02:57:12.112Z,92.77
2023-05-09T02:58:14.842Z,93.69
2023-05-09T02:59:12.091Z,97.90
2023-05-09T03:00:12.092Z,97.04
2023-05-09T03:01:12.083Z,96.09
2023-05-09T03:02:12.085Z,98.38
2023-05-09T03:03:12.266Z,96.75
2023-05-09T03:04:12.080Z,96.71
2023-05-09T03:05:12.094Z,99.07
2023-05-09T03:06:12.067Z,97.82
2023-05-09T03:07:12.050Z,104.03
2023-05-09T03:08:12.048Z,108.87
2023-05-09T03:09:12.032Z,118.70
2023-05-09T03:10:12.019Z,119.64
2023-05-09T03:11:12.006Z,121.17
2023-05-09T03:12:12.021Z,122.79
2023-05-09T03:13:12.042Z,125.16
2023-05-09T03:14:12.003Z,125.47
2023-05-09T03:15:12.156Z,125.40
2023-05-09T03:16:12.026Z,117.01
2023-05-09T03:17:11.968Z,109.59
2023-05-09T03:18:12.020Z,107.27
2023-05-09T03:19:12.035Z,108.53
2023-05-09T03:20:11.937Z,104.11
2023-05-09T03:21:11.944Z,104.88
2023-05-09T03:22:11.947Z,103.77
2023-05-09T03:23:11.938Z,104.02
2023-05-09T03:24:11.926Z,108.15
2023-05-09T03:25:11.984Z,105.19
2023-05-09T03:26:11.908Z,105.12
2023-05-09T03:27:11.894Z,101.91
2023-05-09T03:28:11.887Z,99.40
2023-05-09T03:29:11.877Z,95.16
2023-05-09T03:30:11.878Z,93.93
2023-05-09T03:31:11.968Z,96.15
2023-05-09T03:32:13.392Z,92.65
2023-05-09T03:33:11.859Z,92.81
2023-05-09T03:34:11.856Z,93.45
2023-05-09T03:35:11.966Z,93.09
2023-05-09T03:36:11.840Z,95.95
2023-05-09T03:37:11.815Z,96.34
2023-05-09T03:38:11.815Z,99.41
2023-05-09T03:39:11.812Z,97.46
2023-05-09T03:40:11.796Z,97.65
2023-05-09T03:41:11.788Z,102.13
2023-05-09T03:42:11.769Z,108.32
2023-05-09T03:43:11.778Z,105.66
2023-05-09T03:44:11.780Z,103.15
2023-05-09T03:45:11.823Z,99.12
2023-05-09T03:46:11.777Z,91.75
2023-05-09T03:47:11.769Z,91.59
2023-05-09T03:48:11.791Z,91.42
2023-05-09T03:49:11.737Z,88.15
2023-05-09T03:50:11.738Z,81.87
2023-05-09T03:51:11.809Z,76.33
2023-05-09T03:52:11.713Z,77.14
2023-05-09T03:53:11.718Z,75.66
2023-05-09T03:54:11.696Z,76.22
2023-05-09T03:55:11.721Z,73.42
2023-05-09T03:56:11.698Z,71.70
2023-05-09T03:57:11.699Z,70.83
2023-05-09T03:58:11.690Z,69.15
2023-05-09T03:59:11.669Z,69.73
2023-05-09T04:00:11.655Z,69.66
2023-05-09T04:01:11.644Z,69.42
2023-05-09T04:02:11.677Z,69.92
2023-05-09T04:03:11.702Z,72.62
2023-05-09T04:04:11.710Z,74.16
2023-05-09T04:05:11.683Z,79.80
2023-05-09T04:06:11.612Z,79.64
2023-05-09T04:07:11.693Z,80.91
2023-05-09T04:08:11.602Z,79.52
2023-05-09T04:09:11.603Z,78.87
2023-05-09T04:10:11.615Z,75.81
2023-05-09T04:11:11.594Z,78.12
2023-05-09T04:12:11.600Z,74.35
2023-05-09T04:13:11.639Z,75.98
2023-05-09T04:14:11.552Z,76.15
2023-05-09T04:15:11.688Z,72.69
2023-05-09T04:16:11.562Z,68.64
2023-05-09T04:17:11.543Z,71.93
2023-05-09T04:18:11.545Z,69.41
2023-05-09T04:19:11.514Z,68.99
2023-05-09T04:20:11.526Z,67.47
2023-05-09T04:21:11.505Z,70.16
2023-05-09T04:22:11.559Z,69.86
2023-05-09T04:23:11.576Z,69.84
2023-05-09T04:24:11.487Z,70.15
2023-05-09T04:25:11.476Z,72.76
2023-05-09T04:26:11.467Z,73.36
2023-05-09T04:27:11.456Z,75.73
2023-05-09T04:28:11.472Z,76.13
2023-05-09T04:29:11.458Z,82.32
2023-05-09T04:30:11.475Z,84.60
2023-05-09T04:31:11.492Z,83.98
2023-05-09T04:32:11.462Z,83.27
2023-05-09T04:33:11.424Z,77.56
2023-05-09T04:34:11.418Z,73.81
2023-05-09T04:35:11.429Z,74.00
2023-05-09T04:36:11.415Z,73.11
2023-05-09T04:37:11.394Z,73.24
2023-05-09T04:38:11.399Z,73.04
2023-05-09T04:39:11.481Z,73.10
2023-05-09T04:40:11.377Z,75.82
2023-05-09T04:41:11.397Z,74.55
2023-05-09T04:42:11.378Z,76.86
2023-05-09T04:43:11.380Z,79.82
2023-05-09T04:44:11.338Z,85.71
2023-05-09T04:45:11.391Z,87.94
2023-05-09T04:46:11.374Z,87.99
2023-05-09T04:47:11.324Z,96.27
2023-05-09T04:48:11.322Z,93.77
2023-05-09T04:49:11.303Z,97.55
2023-05-09T04:50:11.321Z,93.46
2023-05-09T04:51:11.321Z,90.47
2023-05-09T04:52:11.295Z,84.57
2023-05-09T04:53:11.290Z,76.72
2023-05-09T04:54:11.291Z,75.92
2023-05-09T04:55:11.344Z,72.71
2023-05-09T04:56:11.254Z,73.88
2023-05-09T04:57:17.867Z,74.90
2023-05-09T04:58:12.259Z,75.06
2023-05-09T04:59:11.255Z,75.45
2023-05-09T05:00:11.248Z,76.24
2023-05-09T05:01:11.244Z,78.12
2023-05-09T05:02:11.217Z,86.78
2023-05-09T05:03:11.265Z,87.02
2023-05-09T05:04:11.256Z,91.34
2023-05-09T05:05:13.362Z,99.20
2023-05-09T05:06:11.191Z,108.96
2023-05-09T05:07:11.198Z,117.57
2023-05-09T05:08:11.191Z,128.43
2023-05-09T05:09:11.189Z,130.35
2023-05-09T05:10:11.162Z,163.16
2023-05-09T05:11:11.236Z,190.29
2023-05-09T05:12:11.141Z,199.18
2023-05-09T05:13:11.196Z,221.13
2023-05-09T05:14:11.174Z,237.45
2023-05-09T05:15:11.138Z,228.52
2023-05-09T05:16:11.167Z,229.19
2023-05-09T05:17:11.102Z,210.21
2023-05-09T05:18:11.124Z,206.59
2023-05-09T05:19:11.180Z,244.50
2023-05-09T05:20:11.264Z,263.50
2023-05-09T05:21:11.286Z,282.46
2023-05-09T05:22:11.358Z,259.44
2023-05-09T05:23:11.393Z,290.35
2023-05-09T05:24:11.475Z,335.33
2023-05-09T05:25:11.490Z,437.28
2023-05-09T05:26:11.556Z,494.11
2023-05-09T05:27:11.650Z,410.41
2023-05-09T05:28:11.636Z,323.69
2023-05-09T05:29:11.707Z,271.48
2023-05-09T05:30:11.661Z,255.39
2023-05-09T05:31:11.762Z,244.68
2023-05-09T05:32:11.812Z,222.40
2023-05-09T05:33:11.865Z,209.99
2023-05-09T05:34:12.503Z,188.60
2023-05-09T05:35:12.124Z,164.51
2023-05-09T05:36:12.043Z,150.49
2023-05-09T05:37:12.129Z,143.74
2023-05-09T05:38:12.258Z,141.05
2023-05-09T05:39:12.215Z,133.37
2023-05-09T05:40:12.257Z,128.78
2023-05-09T05:41:12.388Z,129.90
2023-05-09T05:42:12.432Z,131.40
2023-05-09T05:43:12.517Z,139.26
2023-05-09T05:44:12.738Z,145.90
2023-05-09T05:45:12.649Z,153.06
2023-05-09T05:46:12.633Z,148.31
2023-05-09T05:47:12.592Z,142.10
2023-05-09T05:48:13.200Z,139.42
2023-05-09T05:49:12.690Z,134.30
2023-05-09T05:50:12.679Z,125.06
2023-05-09T05:51:12.745Z,112.16
2023-05-09T05:52:12.766Z,112.68
2023-05-09T05:53:12.812Z,109.42
2023-05-09T05:54:12.862Z,102.84
2023-05-09T05:55:13.046Z,92.63
2023-05-09T05:56:12.926Z,86.87
2023-05-09T05:57:12.973Z,83.55
2023-05-09T05:58:12.999Z,84.09
2023-05-09T05:59:13.664Z,84.00
2023-05-09T06:00:13.101Z,85.84
2023-05-09T06:01:13.470Z,92.68
2023-05-09T06:02:13.212Z,94.73
2023-05-09T06:03:13.310Z,92.69
2023-05-09T06:04:13.381Z,93.39
2023-05-09T06:05:13.476Z,91.66
2023-05-09T06:06:13.351Z,87.38
2023-05-09T06:07:13.420Z,81.35
2023-05-09T06:08:13.545Z,78.77
2023-05-09T06:09:13.535Z,75.15
2023-05-09T06:10:13.567Z,73.47
2023-05-09T06:11:13.637Z,71.56
2023-05-09T06:12:13.702Z,70.49
2023-05-09T06:13:14.284Z,68.22
2023-05-09T06:14:14.214Z,69.58
2023-05-09T06:15:14.234Z,69.52
2023-05-09T06:16:19.178Z,70.07
2023-05-09T06:17:14.974Z,70.15
2023-05-09T06:18:13.950Z,70.39
2023-05-09T06:19:14.209Z,70.87
2023-05-09T06:20:13.899Z,72.06
2023-05-09T06:21:13.910Z,74.96
2023-05-09T06:22:13.911Z,79.19
2023-05-09T06:23:13.890Z,74.70
2023-05-09T06:24:23.336Z,69.69
2023-05-09T06:25:15.175Z,69.79
2023-05-09T06:26:13.875Z,69.71
2023-05-09T06:27:14.063Z,63.87
2023-05-09T06:28:13.849Z,52.86
2023-05-09T06:29:13.868Z,50.02
2023-05-09T06:30:24.785Z,49.42
2023-05-09T06:31:14.894Z,49.45
2023-05-09T06:32:13.830Z,49.55
2023-05-09T06:33:13.868Z,50.29
2023-05-09T06:34:14.239Z,53.48
2023-05-09T06:35:14.006Z,57.14
2023-05-09T06:36:13.814Z,58.69
2023-05-09T06:37:13.844Z,55.12
2023-05-09T06:38:14.711Z,54.15
2023-05-09T06:39:14.226Z,53.12
2023-05-09T06:40:13.800Z,53.61
2023-05-09T06:41:13.783Z,54.19
2023-05-09T06:42:13.788Z,56.00
2023-05-09T06:43:13.745Z,54.92
2023-05-09T06:44:13.811Z,54.47
2023-05-09T06:45:13.982Z,55.44
2023-05-09T06:46:13.837Z,54.92
2023-05-09T06:47:13.883Z,57.55
2023-05-09T06:48:14.241Z,58.13
2023-05-09T06:49:13.888Z,57.50
2023-05-09T06:50:13.932Z,57.42
2023-05-09T06:51:13.956Z,60.41
2023-05-09T06:52:13.994Z,63.90
2023-05-09T06:53:14.313Z,65.47
2023-05-09T06:54:14.030Z,65.31
2023-05-09T06:55:14.261Z,63.97
2023-05-09T06:56:14.079Z,63.93
2023-05-09T06:57:14.249Z,61.43
2023-05-09T06:58:14.369Z,60.02
2023-05-09T06:59:14.315Z,60.69
2023-05-09T07:00:14.196Z,64.54
2023-05-09T07:01:14.374Z,65.76
2023-05-09T07:02:14.277Z,61.24
2023-05-09T07:03:14.287Z,51.09
2023-05-09T07:04:14.290Z,49.04
2023-05-09T07:05:14.687Z,48.85
2023-05-09T07:06:14.327Z,48.02
2023-05-09T07:07:14.331Z,47.04
2023-05-09T07:08:14.342Z,44.99
2023-05-09T07:09:14.349Z,45.39
2023-05-09T07:10:14.331Z,48.58
2023-05-09T07:11:14.352Z,46.66
2023-05-09T07:12:14.355Z,44.62
2023-05-09T07:13:14.426Z,42.80
2023-05-09T07:14:14.768Z,44.45
2023-05-09T07:15:16.895Z,50.53
2023-05-09T07:16:15.444Z,50.61
2023-05-09T07:17:22.971Z,46.66
2023-05-09T07:18:15.596Z,46.91
2023-05-09T07:19:14.869Z,45.00
2023-05-09T07:20:14.410Z,44.78
2023-05-09T07:21:14.376Z,40.62
2023-05-09T07:22:14.394Z,39.69
2023-05-09T07:23:15.222Z,39.09
2023-05-09T07:24:18.973Z,37.12
2023-05-09T07:25:14.597Z,37.13
2023-05-09T07:26:14.348Z,37.23
2023-05-09T07:27:14.325Z,37.57
2023-05-09T07:28:14.313Z,38.14
2023-05-09T07:29:14.747Z,38.49
2023-05-09T07:30:14.380Z,35.98
2023-05-09T07:31:14.324Z,29.89
2023-05-09T07:32:14.342Z,27.46
2023-05-09T07:33:14.856Z,24.35
2023-05-09T07:34:14.745Z,22.81
2023-05-09T07:35:14.707Z,20.48
2023-05-09T07:36:14.275Z,19.30
2023-05-09T07:37:15.411Z,18.24
2023-05-09T07:38:14.780Z,19.65
2023-05-09T07:39:14.753Z,20.52
2023-05-09T07:40:14.640Z,19.50
2023-05-09T07:41:14.271Z,18.75
2023-05-09T07:42:14.302Z,21.38
2023-05-09T07:43:14.269Z,22.36
2023-05-09T07:44:14.272Z,22.60
2023-05-09T07:45:14.458Z,24.67
2023-05-09T07:46:14.319Z,26.01
2023-05-09T07:47:14.263Z,28.09
2023-05-09T07:48:14.262Z,28.76
2023-05-09T07:49:14.250Z,27.84
2023-05-09T07:50:14.282Z,26.34
2023-05-09T07:51:14.359Z,28.68
2023-05-09T07:52:14.285Z,31.71
2023-05-09T07:53:14.274Z,33.05
2023-05-09T07:54:14.773Z,32.82
2023-05-09T07:55:14.592Z,29.98
2023-05-09T07:56:14.296Z,29.95
2023-05-09T07:57:14.389Z,25.56
2023-05-09T07:58:14.450Z,21.73
2023-05-09T07:59:14.759Z,20.46
2023-05-09T08:00:14.575Z,18.69
2023-05-09T08:01:14.689Z,17.64
2023-05-09T08:02:14.685Z,13.27
2023-05-09T08:03:14.846Z,10.78
2023-05-09T08:04:14.768Z,10.63
2023-05-09T08:05:14.950Z,11.80
2023-05-09T08:06:14.814Z,12.47
2023-05-09T08:07:14.896Z,12.76
2023-05-09T08:08:14.916Z,12.84
2023-05-09T08:09:14.968Z,11.22
2023-05-09T08:10:15.034Z,8.47
2023-05-09T08:11:15.043Z,7.53
2023-05-09T08:12:15.107Z,6.59
2023-05-09T08:13:15.155Z,4.90
2023-05-09T08:14:15.704Z,3.81
2023-05-09T08:15:15.373Z,2.91
2023-05-09T08:16:15.364Z,2.97
2023-05-09T08:17:15.277Z,3.09
2023-05-09T08:18:15.314Z,2.97
2023-05-09T08:19:15.814Z,2.74
2023-05-09T08:20:15.370Z,2.99
2023-05-09T08:21:15.391Z,3.49
2023-05-09T08:22:15.433Z,3.76
2023-05-09T08:23:15.477Z,3.28
2023-05-09T08:24:15.494Z,3.18
2023-05-09T08:25:15.689Z,2.90
2023-05-09T08:26:15.545Z,3.68
2023-05-09T08:27:15.672Z,5.52
2023-05-09T08:28:15.569Z,5.18
2023-05-09T08:29:15.589Z,5.46
2023-05-09T08:30:15.594Z,5.50
2023-05-09T08:31:15.652Z,5.50
2023-05-09T08:32:15.694Z,6.12
2023-05-09T08:33:15.635Z,5.81
2023-05-09T08:34:15.726Z,6.00
2023-05-09T08:35:15.934Z,10.46
2023-05-09T08:36:15.812Z,12.81
2023-05-09T08:37:15.814Z,8.69
2023-05-09T08:38:15.853Z,6.25
2023-05-09T08:39:16.366Z,6.06
2023-05-09T08:40:16.177Z,6.67
2023-05-09T08:41:16.025Z,6.68
2023-05-09T08:42:16.076Z,5.05
2023-05-09T08:43:16.092Z,3.92
2023-05-09T08:44:16.271Z,3.41
2023-05-09T08:45:16.216Z,2.87
2023-05-09T08:46:16.294Z,2.81
2023-05-09T08:47:16.332Z,2.84
2023-05-09T08:48:16.389Z,2.38
2023-05-09T08:49:16.751Z,1.91
2023-05-09T08:50:16.589Z,1.75
2023-05-09T08:51:16.522Z,1.70
2023-05-09T08:52:16.586Z,1.49
2023-05-09T08:53:16.613Z,1.25
2023-05-09T08:54:16.761Z,0.90
2023-05-09T08:55:16.690Z,0.75
2023-05-09T08:56:16.625Z,0.75
2023-05-09T08:57:16.626Z,0.94
2023-05-09T08:58:16.651Z,1.11
2023-05-09T08:59:16.744Z,1.22
2023-05-09T09:00:19.519Z,1.35
2023-05-09T09:01:16.787Z,1.39
2023-05-09T09:02:16.782Z,1.13
2023-05-09T09:03:16.757Z,0.96
2023-05-09T09:04:16.807Z,0.71
2023-05-09T09:05:34.624Z,0.62
2023-05-09T09:06:17.718Z,0.61
2023-05-09T09:07:16.708Z,0.45
2023-05-09T09:08:16.713Z,0.48
2023-05-09T09:09:16.806Z,0.68
2023-05-09T09:10:16.826Z,0.96
2023-05-09T09:11:16.761Z,1.23
2023-05-09T09:12:16.696Z,1.45
2023-05-09T09:13:16.771Z,1.36
2023-05-09T09:14:16.785Z,1.14
2023-05-09T09:15:16.786Z,0.83
2023-05-09T09:16:16.874Z,0.68
2023-05-09T09:17:16.900Z,0.65
2023-05-09T09:18:16.976Z,0.46
2023-05-09T09:19:17.021Z,0.34
2023-05-09T09:20:17.196Z,0.34
2023-05-09T09:21:17.182Z,0.39
2023-05-09T09:22:17.210Z,0.52
2023-05-09T09:23:17.236Z,0.66
2023-05-09T09:24:17.305Z,0.71
2023-05-09T09:25:17.336Z,0.59
2023-05-09T09:26:17.416Z,0.50
2023-05-09T09:27:17.528Z,0.47
2023-05-09T09:28:17.520Z,0.50
2023-05-09T09:29:17.792Z,0.51
2023-05-09T09:30:17.649Z,0.57
2023-05-09T09:31:17.703Z,0.87
2023-05-09T09:32:17.742Z,1.20
2023-05-09T09:33:17.711Z,1.55
2023-05-09T09:34:17.820Z,1.82
2023-05-09T09:35:17.781Z,1.82
2023-05-09T09:36:17.798Z,1.70
2023-05-09T09:37:17.823Z,1.58
2023-05-09T09:38:17.819Z,1.85
2023-05-09T09:39:17.903Z,2.09
2023-05-09T09:40:17.992Z,1.78
2023-05-09T09:41:17.846Z,1.17
2023-05-09T09:42:17.883Z,0.90
2023-05-09T09:43:17.930Z,0.80
2023-05-09T09:44:18.281Z,0.79
2023-05-09T09:45:17.869Z,0.76
2023-05-09T09:46:17.906Z,0.59
2023-05-09T09:47:17.867Z,0.53
2023-05-09T09:48:18.310Z,0.53
2023-05-09T09:49:18.333Z,0.49
2023-05-09T09:50:18.110Z,0.44
2023-05-09T09:51:17.946Z,0.40
2023-05-09T09:52:17.979Z,0.50
2023-05-09T09:53:18.016Z,0.49
2023-05-09T09:54:18.317Z,0.52
2023-05-09T09:55:18.092Z,0.51
2023-05-09T09:56:18.084Z,0.50
2023-05-09T09:57:18.115Z,0.46
2023-05-09T09:58:18.240Z,0.51
2023-05-09T09:59:18.309Z,0.50
2023-05-09T10:00:18.271Z,0.51
2023-05-09T10:01:18.346Z,0.53
2023-05-09T10:02:18.236Z,0.60
2023-05-09T10:03:18.348Z,0.53
2023-05-09T10:04:18.332Z,0.51
2023-05-09T10:05:18.246Z,0.51
2023-05-09T10:06:18.255Z,0.60
2023-05-09T10:07:18.289Z,0.69
2023-05-09T10:08:18.322Z,0.64
2023-05-09T10:09:18.367Z,0.59
2023-05-09T10:10:18.400Z,0.66
2023-05-09T10:11:18.452Z,0.74
2023-05-09T10:12:18.497Z,0.72
2023-05-09T10:13:18.655Z,0.73
2023-05-09T10:14:18.816Z,0.68
2023-05-09T10:15:18.755Z,0.63
2023-05-09T10:16:21.466Z,0.69
2023-05-09T10:17:19.777Z,0.69
2023-05-09T10:18:18.863Z,0.71
2023-05-09T10:19:18.895Z,0.73
2023-05-09T10:20:18.894Z,0.82
2023-05-09T10:21:18.740Z,1.03
2023-05-09T10:22:18.709Z,0.97
2023-05-09T10:23:18.694Z,0.88
2023-05-09T10:24:18.838Z,1.06
2023-05-09T10:25:18.652Z,1.26
2023-05-09T10:26:18.720Z,1.23
2023-05-09T10:27:18.785Z,0.91
2023-05-09T10:28:18.824Z,0.62
2023-05-09T10:29:18.893Z,0.55
2023-05-09T10:30:18.961Z,0.50
2023-05-09T10:31:19.067Z,0.54
2023-05-09T10:32:18.976Z,0.68
2023-05-09T10:33:19.002Z,0.65
2023-05-09T10:34:19.339Z,0.88
2023-05-09T10:35:19.009Z,0.86
2023-05-09T10:36:19.041Z,0.93
2023-05-09T10:37:19.057Z,0.86
2023-05-09T10:38:19.115Z,0.61
2023-05-09T10:39:19.373Z,0.50
2023-05-09T10:40:19.117Z,0.49
2023-05-09T10:41:19.158Z,0.46
2023-05-09T10:42:19.139Z,0.78
2023-05-09T10:43:19.160Z,0.73
2023-05-09T10:44:19.165Z,0.78
2023-05-09T10:45:19.306Z,0.60
2023-05-09T10:46:19.233Z,0.34
2023-05-09T10:47:19.320Z,0.42
2023-05-09T10:48:19.281Z,0.61
2023-05-09T10:49:20.305Z,0.79
2023-05-09T10:50:19.347Z,0.87
2023-05-09T10:51:19.346Z,0.71
2023-05-09T10:52:19.355Z,0.71
2023-05-09T10:53:19.381Z,0.70
2023-05-09T10:54:19.809Z,0.75
2023-05-09T10:55:19.465Z,0.69
2023-05-09T10:56:19.484Z,0.67
2023-05-09T10:57:19.525Z,0.78
2023-05-09T10:58:19.559Z,0.84
2023-05-09T10:59:19.820Z,0.81
2023-05-09T11:00:19.675Z,0.78
2023-05-09T11:01:19.756Z,0.51
2023-05-09T11:02:19.720Z,0.50
2023-05-09T11:03:19.942Z,0.49
2023-05-09T11:04:19.827Z,0.53
2023-05-09T11:05:19.812Z,0.52
2023-05-09T11:06:19.848Z,0.51
2023-05-09T11:07:19.872Z,0.51
2023-05-09T11:08:19.910Z,0.50
2023-05-09T11:09:19.967Z,0.50
2023-05-09T11:10:20.067Z,0.60
2023-05-09T11:11:20.037Z,0.61
2023-05-09T11:12:20.074Z,0.75
2023-05-09T11:13:20.108Z,1.07
2023-05-09T11:14:20.349Z,1.10
2023-05-09T11:15:20.320Z,1.10
2023-05-09T11:16:20.145Z,1.05
2023-05-09T11:17:20.158Z,0.96
2023-05-09T11:18:20.155Z,0.90
2023-05-09T11:19:20.242Z,0.76
2023-05-09T11:20:20.163Z,0.78
2023-05-09T11:21:20.159Z,0.73
2023-05-09T11:22:20.181Z,1.06
2023-05-09T11:23:20.184Z,1.05
2023-05-09T11:24:20.215Z,0.97
2023-05-09T11:25:20.262Z,1.03
2023-05-09T11:26:20.304Z,1.21
2023-05-09T11:27:20.346Z,0.98
2023-05-09T11:28:20.426Z,0.88
2023-05-09T11:29:20.463Z,0.94
2023-05-09T11:30:20.558Z,0.92
2023-05-09T11:31:20.647Z,0.93
2023-05-09T11:32:20.649Z,0.78
2023-05-09T11:33:20.656Z,0.67
2023-05-09T11:34:20.700Z,0.57
2023-05-09T11:35:20.896Z,0.49
2023-05-09T11:36:20.819Z,0.55
2023-05-09T11:37:20.841Z,0.59
2023-05-09T11:38:20.939Z,0.51
2023-05-09T11:39:20.954Z,0.49
2023-05-09T11:40:21.087Z,0.57
2023-05-09T11:41:21.075Z,0.60
2023-05-09T11:42:21.135Z,0.66
2023-05-09T11:43:21.197Z,0.65
2023-05-09T11:44:21.240Z,0.67
2023-05-09T11:45:21.277Z,0.67
2023-05-09T11:46:21.388Z,0.71
2023-05-09T11:47:21.435Z,0.69
2023-05-09T11:48:21.429Z,0.62
2023-05-09T11:49:21.498Z,0.47
2023-05-09T11:50:21.542Z,0.54
2023-05-09T11:51:21.651Z,0.50
2023-05-09T11:52:21.638Z,0.47
2023-05-09T11:53:21.652Z,0.63
2023-05-09T11:54:21.699Z,0.73
2023-05-09T11:55:21.784Z,0.79
2023-05-09T11:56:21.814Z,0.78
2023-05-09T11:57:21.893Z,0.92
2023-05-09T11:58:21.922Z,0.96
2023-05-09T11:59:21.991Z,0.96
2023-05-09T12:00:22.061Z,0.63
2023-05-09T12:01:22.062Z,0.53
2023-05-09T12:02:22.169Z,0.73
2023-05-09T12:03:22.304Z,0.93
2023-05-09T12:04:22.239Z,1.33
2023-05-09T12:05:22.269Z,1.88
2023-05-09T12:06:22.327Z,2.37
2023-05-09T12:07:22.473Z,2.48
2023-05-09T12:08:22.436Z,2.00
2023-05-09T12:09:22.531Z,1.73
2023-05-09T12:10:22.561Z,0.83
2023-05-09T12:11:22.627Z,0.49
2023-05-09T12:12:22.690Z,0.44
2023-05-09T12:13:22.753Z,0.63
2023-05-09T12:14:22.803Z,1.33
2023-05-09T12:15:22.852Z,2.53
2023-05-09T12:16:22.941Z,3.31
2023-05-09T12:17:23.059Z,3.35
2023-05-09T12:18:23.020Z,3.14
2023-05-09T12:19:23.073Z,2.84
2023-05-09T12:20:23.115Z,3.23
2023-05-09T12:21:23.137Z,3.88
2023-05-09T12:22:23.209Z,4.33
2023-05-09T12:23:23.318Z,3.40
2023-05-09T12:24:23.291Z,2.40
2023-05-09T12:25:23.337Z,1.42
2023-05-09T12:26:23.356Z,1.62
2023-05-09T12:27:23.419Z,1.96
2023-05-09T12:28:23.458Z,1.50
2023-05-09T12:29:23.479Z,0.96
2023-05-09T12:30:23.488Z,0.57
2023-05-09T12:31:23.535Z,0.47
2023-05-09T12:32:23.591Z,0.64
2023-05-09T12:33:23.546Z,1.17
2023-05-09T12:34:23.581Z,1.61
2023-05-09T12:35:23.844Z,1.26
2023-05-09T12:36:23.624Z,0.50
2023-05-09T12:37:23.627Z,0.39
2023-05-09T12:38:23.638Z,0.37
2023-05-09T12:39:23.739Z,0.41
2023-05-09T12:40:23.679Z,0.52
2023-05-09T12:41:37.000Z,0.62
2023-05-09T12:42:24.759Z,0.46
2023-05-09T12:43:23.754Z,0.47
2023-05-09T12:44:23.747Z,0.61
2023-05-09T12:45:23.723Z,0.67
2023-05-09T12:46:23.819Z,0.86
2023-05-09T12:47:23.733Z,0.59
2023-05-09T12:48:23.698Z,0.46
2023-05-09T12:49:23.713Z,0.38
2023-05-09T12:50:23.701Z,0.48
2023-05-09T12:51:23.722Z,0.53
2023-05-09T12:52:23.674Z,0.89
2023-05-09T12:53:23.699Z,1.31
2023-05-09T12:54:23.724Z,1.12
2023-05-09T12:55:23.850Z,0.95
2023-05-09T12:56:23.798Z,0.85
2023-05-09T12:57:23.876Z,0.63
2023-05-09T12:58:23.905Z,0.64